ENOL

Ørland Airport

Ørland, Norway
METAR ENOL 191550Z 29017KT 9999 VCSH SCT015CB M01/M05 Q1010 TEMPO 32018G28KT 0600 SHSNGS VV006
Observed Flight Rules
Jan-19 @ 15:50 UTC (47 minutes ago) Visual Flight Rules
Wind Visibility Clouds
290° at 17 knots 10,000+ meters
  • Scattered at 1,500' AGL
Temperatures Readings
Current -1°C / 30°F
Dewpoint -5°C / 23°F
Humidity 75%
Altimeter 29.82" Hg
Pressure 1009.92 hPa
Elevation 7
METAR ENOL 191550Z 29017KT 9999 VCSH SCT015CB M01/M05 Q1010 TEMPO 32018G28KT 0600 SHSNGS VV006
Observed Flight Rules
Jan-19 @ 15:50 UTC
(47 minutes ago)
VFR
Wind Visibility
290° at 17 knots 10,000+ meters
Clouds
  • Scattered at 1,500' AGL
Temperature Dewpoint
-1°C / 30°F -5°C / 23°F
Humidity Altimeter Pressure
75% 29.82" Hg 1009.92 hPa